sensor_id;sensor_type;location;lat;lon;timestamp;P1;durP1;ratioP1;P2;durP2;ratioP2
39344;SDS011;25061;51.954;6.996;2023-04-25T04:31:12;10.30;;;2.13;;
39344;SDS011;25061;51.954;6.996;2023-04-25T04:33:41;10.50;;;2.28;;
39344;SDS011;25061;51.954;6.996;2023-04-25T04:36:07;14.10;;;2.95;;
39344;SDS011;25061;51.954;6.996;2023-04-25T04:38:33;10.15;;;2.28;;
39344;SDS011;25061;51.954;6.996;2023-04-25T04:40:59;14.25;;;3.25;;
39344;SDS011;25061;51.954;6.996;2023-04-25T04:43:24;12.48;;;2.53;;
39344;SDS011;25061;51.954;6.996;2023-04-25T04:45:53;9.95;;;2.30;;
39344;SDS011;25061;51.954;6.996;2023-04-25T04:48:21;11.05;;;2.45;;
39344;SDS011;25061;51.954;6.996;2023-04-25T04:50:46;8.88;;;2.00;;
39344;SDS011;25061;51.954;6.996;2023-04-25T04:53:12;11.63;;;2.33;;
39344;SDS011;25061;51.954;6.996;2023-04-25T04:55:38;11.60;;;2.67;;
39344;SDS011;25061;51.954;6.996;2023-04-25T04:58:06;11.38;;;2.25;;
39344;SDS011;25061;51.954;6.996;2023-04-25T05:00:31;12.30;;;2.72;;
39344;SDS011;25061;51.954;6.996;2023-04-25T05:02:58;12.70;;;2.67;;
39344;SDS011;25061;51.954;6.996;2023-04-25T05:05:23;10.10;;;2.65;;
39344;SDS011;25061;51.954;6.996;2023-04-25T05:07:49;12.93;;;2.78;;
39344;SDS011;25061;51.954;6.996;2023-04-25T05:10:16;12.15;;;2.47;;
39344;SDS011;25061;51.954;6.996;2023-04-25T05:12:42;10.35;;;2.70;;
39344;SDS011;25061;51.954;6.996;2023-04-25T05:15:08;13.93;;;3.03;;
39344;SDS011;25061;51.954;6.996;2023-04-25T05:17:34;14.80;;;2.80;;
39344;SDS011;25061;51.954;6.996;2023-04-25T05:20:00;14.20;;;3.17;;
39344;SDS011;25061;51.954;6.996;2023-04-25T05:22:26;15.07;;;3.03;;
39344;SDS011;25061;51.954;6.996;2023-04-25T05:24:52;14.63;;;2.50;;
39344;SDS011;25061;51.954;6.996;2023-04-25T05:27:18;14.35;;;2.47;;
39344;SDS011;25061;51.954;6.996;2023-04-25T05:29:44;9.25;;;3.03;;
39344;SDS011;25061;51.954;6.996;2023-04-25T05:32:10;14.00;;;2.70;;
39344;SDS011;25061;51.954;6.996;2023-04-25T05:34:36;16.13;;;4.05;;
39344;SDS011;25061;51.954;6.996;2023-04-25T05:37:01;11.25;;;2.60;;
39344;SDS011;25061;51.954;6.996;2023-04-25T05:39:27;17.30;;;3.50;;
39344;SDS011;25061;51.954;6.996;2023-04-25T05:41:53;13.65;;;2.97;;
39344;SDS011;25061;51.954;6.996;2023-04-25T05:44:19;14.60;;;2.83;;
39344;SDS011;25061;51.954;6.996;2023-04-25T05:46:45;10.55;;;2.30;;
39344;SDS011;25061;51.954;6.996;2023-04-25T05:49:10;16.17;;;2.50;;
39344;SDS011;25061;51.954;6.996;2023-04-25T05:51:36;13.27;;;3.50;;
39344;SDS011;25061;51.954;6.996;2023-04-25T05:54:02;12.98;;;2.53;;
39344;SDS011;25061;51.954;6.996;2023-04-25T05:56:28;12.75;;;3.03;;
39344;SDS011;25061;51.954;6.996;2023-04-25T05:58:53;13.07;;;2.80;;
39344;SDS011;25061;51.954;6.996;2023-04-25T06:01:20;15.15;;;2.88;;
39344;SDS011;25061;51.954;6.996;2023-04-25T06:03:46;14.30;;;2.75;;
39344;SDS011;25061;51.954;6.996;2023-04-25T06:06:12;13.50;;;3.70;;
39344;SDS011;25061;51.954;6.996;2023-04-25T06:08:37;13.75;;;2.83;;
39344;SDS011;25061;51.954;6.996;2023-04-25T06:11:03;12.25;;;2.55;;
39344;SDS011;25061;51.954;6.996;2023-04-25T06:13:29;13.18;;;2.20;;
39344;SDS011;25061;51.954;6.996;2023-04-25T06:15:55;13.23;;;2.40;;
39344;SDS011;25061;51.954;6.996;2023-04-25T06:18:20;12.43;;;2.42;;
39344;SDS011;25061;51.954;6.996;2023-04-25T06:20:46;13.10;;;3.20;;
39344;SDS011;25061;51.954;6.996;2023-04-25T06:23:12;11.38;;;2.17;;
39344;SDS011;25061;51.954;6.996;2023-04-25T06:25:37;13.70;;;2.75;;
39344;SDS011;25061;51.954;6.996;2023-04-25T06:28:03;10.85;;;1.80;;
39344;SDS011;25061;51.954;6.996;2023-04-25T06:30:29;11.38;;;2.30;;
39344;SDS011;25061;51.954;6.996;2023-04-25T06:32:54;11.25;;;2.65;;
39344;SDS011;25061;51.954;6.996;2023-04-25T06:35:22;12.55;;;2.10;;
39344;SDS011;25061;51.954;6.996;2023-04-25T06:37:47;14.77;;;2.28;;
39344;SDS011;25061;51.954;6.996;2023-04-25T06:40:13;12.82;;;2.13;;
39344;SDS011;25061;51.954;6.996;2023-04-25T06:42:39;11.77;;;2.15;;
39344;SDS011;25061;51.954;6.996;2023-04-25T06:45:05;14.35;;;2.55;;
39344;SDS011;25061;51.954;6.996;2023-04-25T06:47:31;10.65;;;2.40;;
39344;SDS011;25061;51.954;6.996;2023-04-25T06:49:57;13.00;;;3.05;;
39344;SDS011;25061;51.954;6.996;2023-04-25T06:52:22;9.05;;;2.03;;
39344;SDS011;25061;51.954;6.996;2023-04-25T06:54:48;14.18;;;1.80;;
39344;SDS011;25061;51.954;6.996;2023-04-25T06:57:14;17.05;;;3.13;;
39344;SDS011;25061;51.954;6.996;2023-04-25T06:59:39;11.23;;;1.80;;
39344;SDS011;25061;51.954;6.996;2023-04-25T07:02:05;11.07;;;2.60;;
39344;SDS011;25061;51.954;6.996;2023-04-25T07:04:31;18.02;;;2.38;;
39344;SDS011;25061;51.954;6.996;2023-04-25T07:06:56;11.10;;;1.92;;
39344;SDS011;25061;51.954;6.996;2023-04-25T07:09:22;16.55;;;2.88;;
39344;SDS011;25061;51.954;6.996;2023-04-25T07:11:48;13.40;;;2.08;;
39344;SDS011;25061;51.954;6.996;2023-04-25T07:14:13;8.82;;;2.10;;
39344;SDS011;25061;51.954;6.996;2023-04-25T07:16:40;11.85;;;1.80;;
39344;SDS011;25061;51.954;6.996;2023-04-25T07:19:05;8.75;;;1.70;;
39344;SDS011;25061;51.954;6.996;2023-04-25T07:21:31;8.82;;;1.75;;
39344;SDS011;25061;51.954;6.996;2023-04-25T07:23:57;15.98;;;2.17;;
39344;SDS011;25061;51.954;6.996;2023-04-25T07:26:23;14.65;;;2.63;;
39344;SDS011;25061;51.954;6.996;2023-04-25T07:28:49;9.45;;;2.08;;
39344;SDS011;25061;51.954;6.996;2023-04-25T07:31:16;14.27;;;2.40;;
39344;SDS011;25061;51.954;6.996;2023-04-25T07:33:45;20.23;;;3.05;;
39344;SDS011;25061;51.954;6.996;2023-04-25T07:36:11;17.95;;;3.53;;
39344;SDS011;25061;51.954;6.996;2023-04-25T07:38:37;10.45;;;2.35;;
39344;SDS011;25061;51.954;6.996;2023-04-25T07:41:03;12.50;;;1.88;;
39344;SDS011;25061;51.954;6.996;2023-04-25T07:43:29;12.85;;;1.75;;
39344;SDS011;25061;51.954;6.996;2023-04-25T07:45:55;12.52;;;1.80;;
39344;SDS011;25061;51.954;6.996;2023-04-25T07:48:21;12.10;;;1.90;;
39344;SDS011;25061;51.954;6.996;2023-04-25T07:50:47;7.78;;;2.15;;
39344;SDS011;25061;51.954;6.996;2023-04-25T07:53:14;12.90;;;1.92;;
39344;SDS011;25061;51.954;6.996;2023-04-25T07:55:40;10.35;;;2.00;;
39344;SDS011;25061;51.954;6.996;2023-04-25T07:58:06;12.85;;;1.95;;
39344;SDS011;25061;51.954;6.996;2023-04-25T08:00:32;13.52;;;1.60;;
39344;SDS011;25061;51.954;6.996;2023-04-25T08:02:57;10.82;;;2.10;;
39344;SDS011;25061;51.954;6.996;2023-04-25T08:05:23;10.27;;;1.70;;
39344;SDS011;25061;51.954;6.996;2023-04-25T08:07:49;8.52;;;1.48;;
39344;SDS011;25061;51.954;6.996;2023-04-25T08:10:15;11.75;;;1.60;;
39344;SDS011;25061;51.954;6.996;2023-04-25T08:12:40;11.68;;;1.63;;
39344;SDS011;25061;51.954;6.996;2023-04-25T08:15:06;13.52;;;3.05;;
39344;SDS011;25061;51.954;6.996;2023-04-25T08:17:32;9.38;;;1.42;;
39344;SDS011;25061;51.954;6.996;2023-04-25T08:19:58;14.85;;;2.03;;
39344;SDS011;25061;51.954;6.996;2023-04-25T08:22:24;9.88;;;1.40;;
39344;SDS011;25061;51.954;6.996;2023-04-25T08:24:50;6.50;;;1.42;;
39344;SDS011;25061;51.954;6.996;2023-04-25T08:27:16;10.48;;;1.60;;
39344;SDS011;25061;51.954;6.996;2023-04-25T08:29:43;10.50;;;1.77;;
39344;SDS011;25061;51.954;6.996;2023-04-25T08:32:08;10.18;;;1.30;;
39344;SDS011;25061;51.954;6.996;2023-04-25T08:34:35;7.80;;;1.30;;
39344;SDS011;25061;51.954;6.996;2023-04-25T08:37:02;7.95;;;1.92;;
39344;SDS011;25061;51.954;6.996;2023-04-25T08:39:29;8.32;;;1.90;;
39344;SDS011;25061;51.954;6.996;2023-04-25T08:41:55;7.82;;;1.40;;
39344;SDS011;25061;51.954;6.996;2023-04-25T08:44:21;10.57;;;1.60;;
39344;SDS011;25061;51.954;6.996;2023-04-25T08:46:48;8.05;;;1.00;;
39344;SDS011;25061;51.954;6.996;2023-04-25T08:49:14;12.27;;;1.50;;
39344;SDS011;25061;51.954;6.996;2023-04-25T08:51:45;10.85;;;1.95;;
39344;SDS011;25061;51.954;6.996;2023-04-25T08:54:12;7.78;;;1.42;;
39344;SDS011;25061;51.954;6.996;2023-04-25T08:56:45;13.07;;;1.88;;
39344;SDS011;25061;51.954;6.996;2023-04-25T08:59:13;9.55;;;1.52;;
39344;SDS011;25061;51.954;6.996;2023-04-25T09:01:39;10.02;;;1.90;;
39344;SDS011;25061;51.954;6.996;2023-04-25T09:04:05;10.40;;;1.90;;
39344;SDS011;25061;51.954;6.996;2023-04-25T09:06:30;8.90;;;1.83;;
39344;SDS011;25061;51.954;6.996;2023-04-25T09:09:03;7.80;;;1.60;;
39344;SDS011;25061;51.954;6.996;2023-04-25T09:11:31;9.80;;;1.48;;
39344;SDS011;25061;51.954;6.996;2023-04-25T09:14:12;9.35;;;1.58;;
39344;SDS011;25061;51.954;6.996;2023-04-25T09:19:28;12.52;;;1.55;;
39344;SDS011;25061;51.954;6.996;2023-04-25T09:22:01;7.65;;;1.45;;
39344;SDS011;25061;51.954;6.996;2023-04-25T09:24:41;7.43;;;1.27;;
39344;SDS011;25061;51.954;6.996;2023-04-25T09:27:09;6.18;;;1.05;;
39344;SDS011;25061;51.954;6.996;2023-04-25T09:29:40;8.05;;;1.60;;
39344;SDS011;25061;51.954;6.996;2023-04-25T09:32:24;6.47;;;1.17;;
39344;SDS011;25061;51.954;6.996;2023-04-25T09:34:51;7.75;;;1.35;;
39344;SDS011;25061;51.954;6.996;2023-04-25T09:37:19;6.00;;;1.17;;
39344;SDS011;25061;51.954;6.996;2023-04-25T09:39:46;8.80;;;1.25;;
39344;SDS011;25061;51.954;6.996;2023-04-25T09:42:14;9.45;;;1.33;;
39344;SDS011;25061;51.954;6.996;2023-04-25T09:44:45;8.82;;;2.08;;
39344;SDS011;25061;51.954;6.996;2023-04-25T09:47:12;9.50;;;1.88;;
39344;SDS011;25061;51.954;6.996;2023-04-25T09:49:41;10.52;;;1.50;;
39344;SDS011;25061;51.954;6.996;2023-04-25T09:52:07;7.82;;;1.48;;
39344;SDS011;25061;51.954;6.996;2023-04-25T09:54:33;7.68;;;1.38;;
39344;SDS011;25061;51.954;6.996;2023-04-25T09:57:02;7.32;;;1.40;;
39344;SDS011;25061;51.954;6.996;2023-04-25T09:59:38;7.10;;;1.30;;
39344;SDS011;25061;51.954;6.996;2023-04-25T10:02:17;9.65;;;1.30;;
39344;SDS011;25061;51.954;6.996;2023-04-25T10:04:47;7.88;;;1.42;;
39344;SDS011;25061;51.954;6.996;2023-04-25T10:07:14;7.88;;;1.30;;
39344;SDS011;25061;51.954;6.996;2023-04-25T10:09:40;9.15;;;2.00;;
39344;SDS011;25061;51.954;6.996;2023-04-25T10:12:07;9.23;;;1.40;;
39344;SDS011;25061;51.954;6.996;2023-04-25T10:14:33;5.40;;;1.00;;
39344;SDS011;25061;51.954;6.996;2023-04-25T10:17:00;6.57;;;1.08;;
39344;SDS011;25061;51.954;6.996;2023-04-25T10:19:26;5.05;;;0.90;;
39344;SDS011;25061;51.954;6.996;2023-04-25T10:22:55;6.70;;;0.90;;
39344;SDS011;25061;51.954;6.996;2023-04-25T10:24:57;8.65;;;1.20;;
39344;SDS011;25061;51.954;6.996;2023-04-25T10:27:23;5.15;;;1.08;;
39344;SDS011;25061;51.954;6.996;2023-04-25T10:32:37;5.07;;;0.93;;
39344;SDS011;25061;51.954;6.996;2023-04-25T10:35:10;6.93;;;1.13;;
39344;SDS011;25061;51.954;6.996;2023-04-25T10:40:33;3.85;;;1.00;;
39344;SDS011;25061;51.954;6.996;2023-04-25T10:45:56;8.95;;;2.03;;
39344;SDS011;25061;51.954;6.996;2023-04-25T10:48:25;5.00;;;0.90;;
39344;SDS011;25061;51.954;6.996;2023-04-25T10:51:10;4.90;;;0.90;;
39344;SDS011;25061;51.954;6.996;2023-04-25T10:53:43;6.05;;;0.90;;
39344;SDS011;25061;51.954;6.996;2023-04-25T10:56:19;5.53;;;0.88;;
39344;SDS011;25061;51.954;6.996;2023-04-25T10:58:47;4.90;;;1.08;;
39344;SDS011;25061;51.954;6.996;2023-04-25T11:01:15;4.88;;;1.17;;
39344;SDS011;25061;51.954;6.996;2023-04-25T11:03:45;6.55;;;1.00;;
39344;SDS011;25061;51.954;6.996;2023-04-25T11:09:11;7.80;;;1.45;;
39344;SDS011;25061;51.954;6.996;2023-04-25T11:11:38;6.63;;;1.08;;
39344;SDS011;25061;51.954;6.996;2023-04-25T11:14:06;3.50;;;0.93;;
39344;SDS011;25061;51.954;6.996;2023-04-25T11:16:31;4.50;;;0.90;;
39344;SDS011;25061;51.954;6.996;2023-04-25T11:18:57;4.30;;;0.90;;
39344;SDS011;25061;51.954;6.996;2023-04-25T11:21:24;5.15;;;1.67;;
39344;SDS011;25061;51.954;6.996;2023-04-25T11:23:52;3.88;;;0.90;;
39344;SDS011;25061;51.954;6.996;2023-04-25T11:26:20;3.55;;;0.90;;
39344;SDS011;25061;51.954;6.996;2023-04-25T11:28:48;5.68;;;0.77;;
39344;SDS011;25061;51.954;6.996;2023-04-25T11:31:14;4.90;;;0.70;;
39344;SDS011;25061;51.954;6.996;2023-04-25T11:33:40;5.32;;;0.70;;
39344;SDS011;25061;51.954;6.996;2023-04-25T11:36:05;3.55;;;0.95;;
39344;SDS011;25061;51.954;6.996;2023-04-25T11:38:32;2.50;;;0.70;;
39344;SDS011;25061;51.954;6.996;2023-04-25T11:40:59;3.92;;;1.30;;
39344;SDS011;25061;51.954;6.996;2023-04-25T11:43:25;4.90;;;1.10;;
39344;SDS011;25061;51.954;6.996;2023-04-25T11:45:51;7.32;;;1.35;;
39344;SDS011;25061;51.954;6.996;2023-04-25T11:48:17;3.72;;;0.80;;
39344;SDS011;25061;51.954;6.996;2023-04-25T11:50:44;6.25;;;1.10;;
39344;SDS011;25061;51.954;6.996;2023-04-25T11:53:10;4.60;;;0.90;;
39344;SDS011;25061;51.954;6.996;2023-04-25T11:55:36;6.65;;;1.73;;
39344;SDS011;25061;51.954;6.996;2023-04-25T11:58:02;5.50;;;0.80;;
39344;SDS011;25061;51.954;6.996;2023-04-25T12:00:29;6.75;;;1.08;;
39344;SDS011;25061;51.954;6.996;2023-04-25T12:02:56;3.80;;;0.90;;
39344;SDS011;25061;51.954;6.996;2023-04-25T12:05:28;3.63;;;0.90;;
39344;SDS011;25061;51.954;6.996;2023-04-25T12:07:55;6.15;;;1.10;;
39344;SDS011;25061;51.954;6.996;2023-04-25T12:10:21;7.78;;;1.27;;
39344;SDS011;25061;51.954;6.996;2023-04-25T12:12:49;6.90;;;1.23;;
39344;SDS011;25061;51.954;6.996;2023-04-25T12:15:18;11.02;;;1.65;;
39344;SDS011;25061;51.954;6.996;2023-04-25T12:17:49;7.18;;;1.40;;
39344;SDS011;25061;51.954;6.996;2023-04-25T12:20:16;6.90;;;1.10;;
39344;SDS011;25061;51.954;6.996;2023-04-25T12:22:48;6.68;;;1.38;;
39344;SDS011;25061;51.954;6.996;2023-04-25T12:28:20;5.93;;;1.00;;
39344;SDS011;25061;51.954;6.996;2023-04-25T12:33:27;4.28;;;0.80;;
39344;SDS011;25061;51.954;6.996;2023-04-25T12:35:57;2.83;;;0.82;;
39344;SDS011;25061;51.954;6.996;2023-04-25T12:38:24;3.97;;;0.80;;
39344;SDS011;25061;51.954;6.996;2023-04-25T12:40:51;6.00;;;1.05;;
39344;SDS011;25061;51.954;6.996;2023-04-25T12:43:17;6.43;;;1.10;;
39344;SDS011;25061;51.954;6.996;2023-04-25T12:45:45;4.43;;;1.10;;
39344;SDS011;25061;51.954;6.996;2023-04-25T12:48:28;6.68;;;1.02;;
39344;SDS011;25061;51.954;6.996;2023-04-25T12:50:54;6.03;;;1.63;;
39344;SDS011;25061;51.954;6.996;2023-04-25T12:53:21;6.43;;;1.00;;
39344;SDS011;25061;51.954;6.996;2023-04-25T12:55:48;8.38;;;1.05;;
39344;SDS011;25061;51.954;6.996;2023-04-25T12:58:17;5.95;;;1.00;;
39344;SDS011;25061;51.954;6.996;2023-04-25T13:00:44;7.55;;;1.45;;
39344;SDS011;25061;51.954;6.996;2023-04-25T13:03:10;5.00;;;1.10;;
39344;SDS011;25061;51.954;6.996;2023-04-25T13:05:37;10.85;;;1.25;;
39344;SDS011;25061;51.954;6.996;2023-04-25T13:08:03;10.13;;;1.20;;
39344;SDS011;25061;51.954;6.996;2023-04-25T13:10:29;6.60;;;1.00;;
39344;SDS011;25061;51.954;6.996;2023-04-25T13:12:55;7.88;;;1.08;;
39344;SDS011;25061;51.954;6.996;2023-04-25T13:15:21;7.25;;;1.52;;
39344;SDS011;25061;51.954;6.996;2023-04-25T13:17:47;6.60;;;1.42;;
39344;SDS011;25061;51.954;6.996;2023-04-25T13:20:13;6.30;;;1.10;;
39344;SDS011;25061;51.954;6.996;2023-04-25T13:22:40;6.65;;;1.27;;
39344;SDS011;25061;51.954;6.996;2023-04-25T13:25:07;5.43;;;1.17;;
39344;SDS011;25061;51.954;6.996;2023-04-25T13:27:33;9.45;;;1.48;;
39344;SDS011;25061;51.954;6.996;2023-04-25T13:30:01;8.07;;;1.35;;
39344;SDS011;25061;51.954;6.996;2023-04-25T13:32:32;5.70;;;0.80;;
39344;SDS011;25061;51.954;6.996;2023-04-25T13:34:58;5.75;;;1.20;;
39344;SDS011;25061;51.954;6.996;2023-04-25T13:37:24;5.63;;;1.10;;
39344;SDS011;25061;51.954;6.996;2023-04-25T13:39:50;8.45;;;1.20;;
39344;SDS011;25061;51.954;6.996;2023-04-25T13:42:16;6.53;;;1.23;;
39344;SDS011;25061;51.954;6.996;2023-04-25T13:44:41;6.28;;;1.27;;
39344;SDS011;25061;51.954;6.996;2023-04-25T13:47:07;4.43;;;1.08;;
39344;SDS011;25061;51.954;6.996;2023-04-25T13:49:34;4.88;;;1.00;;
39344;SDS011;25061;51.954;6.996;2023-04-25T13:52:00;5.32;;;1.13;;
39344;SDS011;25061;51.954;6.996;2023-04-25T13:54:25;3.97;;;1.10;;
39344;SDS011;25061;51.954;6.996;2023-04-25T13:56:52;14.48;;;1.50;;
39344;SDS011;25061;51.954;6.996;2023-04-25T13:59:20;7.38;;;1.80;;
39344;SDS011;25061;51.954;6.996;2023-04-25T14:01:45;12.45;;;1.00;;
39344;SDS011;25061;51.954;6.996;2023-04-25T14:04:12;5.13;;;1.10;;
39344;SDS011;25061;51.954;6.996;2023-04-25T14:06:38;6.80;;;1.35;;
39344;SDS011;25061;51.954;6.996;2023-04-25T14:09:04;4.53;;;1.00;;
39344;SDS011;25061;51.954;6.996;2023-04-25T14:11:32;5.38;;;1.00;;
39344;SDS011;25061;51.954;6.996;2023-04-25T14:13:57;3.30;;;0.75;;
39344;SDS011;25061;51.954;6.996;2023-04-25T14:16:23;6.75;;;0.95;;
39344;SDS011;25061;51.954;6.996;2023-04-25T14:18:48;6.32;;;1.20;;
39344;SDS011;25061;51.954;6.996;2023-04-25T14:21:14;6.05;;;0.98;;
39344;SDS011;25061;51.954;6.996;2023-04-25T14:23:40;5.80;;;1.33;;
39344;SDS011;25061;51.954;6.996;2023-04-25T14:26:05;7.18;;;1.10;;
39344;SDS011;25061;51.954;6.996;2023-04-25T14:28:31;7.43;;;1.10;;
39344;SDS011;25061;51.954;6.996;2023-04-25T14:30:58;17.92;;;1.77;;
39344;SDS011;25061;51.954;6.996;2023-04-25T14:33:25;6.10;;;1.00;;
39344;SDS011;25061;51.954;6.996;2023-04-25T14:35:51;3.47;;;0.70;;
39344;SDS011;25061;51.954;6.996;2023-04-25T14:38:16;4.85;;;1.00;;
39344;SDS011;25061;51.954;6.996;2023-04-25T14:40:42;5.32;;;0.90;;
39344;SDS011;25061;51.954;6.996;2023-04-25T14:43:08;5.95;;;1.08;;
39344;SDS011;25061;51.954;6.996;2023-04-25T14:45:34;8.02;;;1.52;;
39344;SDS011;25061;51.954;6.996;2023-04-25T14:47:59;7.93;;;1.25;;
39344;SDS011;25061;51.954;6.996;2023-04-25T14:50:25;6.50;;;1.33;;
39344;SDS011;25061;51.954;6.996;2023-04-25T14:52:50;9.30;;;1.10;;
39344;SDS011;25061;51.954;6.996;2023-04-25T14:55:17;5.22;;;0.90;;
39344;SDS011;25061;51.954;6.996;2023-04-25T14:57:44;4.43;;;1.30;;
39344;SDS011;25061;51.954;6.996;2023-04-25T15:00:12;6.05;;;1.67;;
39344;SDS011;25061;51.954;6.996;2023-04-25T15:02:41;5.60;;;1.20;;
39344;SDS011;25061;51.954;6.996;2023-04-25T15:05:07;6.88;;;1.42;;
39344;SDS011;25061;51.954;6.996;2023-04-25T15:07:35;4.60;;;0.88;;
39344;SDS011;25061;51.954;6.996;2023-04-25T15:10:01;5.68;;;0.90;;
39344;SDS011;25061;51.954;6.996;2023-04-25T15:12:27;6.25;;;1.10;;
39344;SDS011;25061;51.954;6.996;2023-04-25T15:14:53;5.97;;;1.23;;
39344;SDS011;25061;51.954;6.996;2023-04-25T15:17:19;4.68;;;1.15;;
39344;SDS011;25061;51.954;6.996;2023-04-25T15:19:45;6.15;;;1.23;;
39344;SDS011;25061;51.954;6.996;2023-04-25T15:22:10;8.00;;;1.67;;
39344;SDS011;25061;51.954;6.996;2023-04-25T15:24:36;6.70;;;1.58;;
39344;SDS011;25061;51.954;6.996;2023-04-25T15:27:01;5.93;;;1.10;;
39344;SDS011;25061;51.954;6.996;2023-04-25T15:29:30;3.90;;;1.08;;
39344;SDS011;25061;51.954;6.996;2023-04-25T15:31:56;3.63;;;1.15;;
39344;SDS011;25061;51.954;6.996;2023-04-25T15:34:22;5.95;;;1.23;;
39344;SDS011;25061;51.954;6.996;2023-04-25T15:36:47;2.65;;;0.70;;
39344;SDS011;25061;51.954;6.996;2023-04-25T15:39:15;3.17;;;0.73;;
39344;SDS011;25061;51.954;6.996;2023-04-25T15:41:40;3.08;;;0.90;;
39344;SDS011;25061;51.954;6.996;2023-04-25T15:44:06;3.15;;;0.70;;
39344;SDS011;25061;51.954;6.996;2023-04-25T15:46:32;3.33;;;0.82;;
39344;SDS011;25061;51.954;6.996;2023-04-25T15:48:58;6.22;;;1.33;;
39344;SDS011;25061;51.954;6.996;2023-04-25T15:51:23;7.10;;;0.77;;
39344;SDS011;25061;51.954;6.996;2023-04-25T15:53:49;4.30;;;0.80;;
39344;SDS011;25061;51.954;6.996;2023-04-25T15:56:15;6.60;;;1.08;;
39344;SDS011;25061;51.954;6.996;2023-04-25T15:58:40;4.55;;;0.80;;
39344;SDS011;25061;51.954;6.996;2023-04-25T16:01:06;6.22;;;1.00;;
39344;SDS011;25061;51.954;6.996;2023-04-25T16:03:32;4.93;;;1.10;;
39344;SDS011;25061;51.954;6.996;2023-04-25T16:05:58;6.40;;;0.98;;
39344;SDS011;25061;51.954;6.996;2023-04-25T16:08:23;7.57;;;0.93;;
39344;SDS011;25061;51.954;6.996;2023-04-25T16:10:50;7.20;;;1.20;;
39344;SDS011;25061;51.954;6.996;2023-04-25T16:13:18;5.18;;;0.90;;
39344;SDS011;25061;51.954;6.996;2023-04-25T16:15:44;5.97;;;0.90;;
39344;SDS011;25061;51.954;6.996;2023-04-25T16:18:10;7.68;;;1.30;;
39344;SDS011;25061;51.954;6.996;2023-04-25T16:20:37;5.05;;;1.00;;
39344;SDS011;25061;51.954;6.996;2023-04-25T16:23:03;5.70;;;1.33;;
39344;SDS011;25061;51.954;6.996;2023-04-25T16:25:28;8.07;;;1.20;;
39344;SDS011;25061;51.954;6.996;2023-04-25T16:27:55;3.42;;;0.90;;
39344;SDS011;25061;51.954;6.996;2023-04-25T16:30:21;5.38;;;1.00;;
39344;SDS011;25061;51.954;6.996;2023-04-25T16:32:47;6.95;;;1.13;;
39344;SDS011;25061;51.954;6.996;2023-04-25T16:35:14;6.45;;;1.00;;
39344;SDS011;25061;51.954;6.996;2023-04-25T16:37:39;8.23;;;1.40;;
39344;SDS011;25061;51.954;6.996;2023-04-25T16:40:05;6.07;;;0.98;;
39344;SDS011;25061;51.954;6.996;2023-04-25T16:42:34;3.95;;;1.27;;
39344;SDS011;25061;51.954;6.996;2023-04-25T16:45:01;4.35;;;1.02;;
39344;SDS011;25061;51.954;6.996;2023-04-25T16:47:29;18.77;;;1.90;;
39344;SDS011;25061;51.954;6.996;2023-04-25T16:49:56;5.07;;;1.55;;
39344;SDS011;25061;51.954;6.996;2023-04-25T16:52:23;7.00;;;1.73;;
39344;SDS011;25061;51.954;6.996;2023-04-25T16:54:49;3.75;;;0.90;;
39344;SDS011;25061;51.954;6.996;2023-04-25T16:57:15;6.18;;;1.50;;
39344;SDS011;25061;51.954;6.996;2023-04-25T16:59:41;5.50;;;1.30;;
39344;SDS011;25061;51.954;6.996;2023-04-25T17:02:08;8.70;;;1.42;;
39344;SDS011;25061;51.954;6.996;2023-04-25T17:04:36;6.25;;;1.23;;
39344;SDS011;25061;51.954;6.996;2023-04-25T17:07:02;5.22;;;0.85;;
39344;SDS011;25061;51.954;6.996;2023-04-25T17:09:27;4.60;;;1.10;;
39344;SDS011;25061;51.954;6.996;2023-04-25T17:11:53;4.97;;;0.90;;
39344;SDS011;25061;51.954;6.996;2023-04-25T17:14:19;5.05;;;0.90;;
39344;SDS011;25061;51.954;6.996;2023-04-25T17:16:44;3.95;;;1.08;;
39344;SDS011;25061;51.954;6.996;2023-04-25T17:19:10;3.35;;;0.90;;
39344;SDS011;25061;51.954;6.996;2023-04-25T17:21:36;6.43;;;1.23;;
39344;SDS011;25061;51.954;6.996;2023-04-25T17:24:03;8.35;;;1.55;;
39344;SDS011;25061;51.954;6.996;2023-04-25T17:26:33;7.82;;;1.05;;
39344;SDS011;25061;51.954;6.996;2023-04-25T17:29:02;7.05;;;1.00;;
39344;SDS011;25061;51.954;6.996;2023-04-25T17:31:28;6.47;;;1.48;;
39344;SDS011;25061;51.954;6.996;2023-04-25T17:33:54;7.45;;;1.60;;
39344;SDS011;25061;51.954;6.996;2023-04-25T17:36:19;11.85;;;2.53;;
39344;SDS011;25061;51.954;6.996;2023-04-25T17:38:45;7.32;;;1.52;;
39344;SDS011;25061;51.954;6.996;2023-04-25T17:41:11;6.30;;;1.20;;
39344;SDS011;25061;51.954;6.996;2023-04-25T17:43:38;5.03;;;1.17;;
39344;SDS011;25061;51.954;6.996;2023-04-25T17:46:04;8.02;;;1.65;;
39344;SDS011;25061;51.954;6.996;2023-04-25T17:48:30;7.03;;;1.38;;
39344;SDS011;25061;51.954;6.996;2023-04-25T17:50:56;6.15;;;1.15;;
39344;SDS011;25061;51.954;6.996;2023-04-25T17:53:23;3.83;;;1.20;;
39344;SDS011;25061;51.954;6.996;2023-04-25T17:55:48;8.27;;;1.52;;
39344;SDS011;25061;51.954;6.996;2023-04-25T17:58:14;3.90;;;1.05;;
39344;SDS011;25061;51.954;6.996;2023-04-25T18:00:41;8.60;;;1.13;;
39344;SDS011;25061;51.954;6.996;2023-04-25T18:03:07;5.45;;;1.02;;
39344;SDS011;25061;51.954;6.996;2023-04-25T18:05:33;5.45;;;1.02;;
39344;SDS011;25061;51.954;6.996;2023-04-25T18:07:59;4.68;;;1.38;;
39344;SDS011;25061;51.954;6.996;2023-04-25T18:10:25;4.65;;;0.93;;
39344;SDS011;25061;51.954;6.996;2023-04-25T18:12:51;4.50;;;1.00;;
39344;SDS011;25061;51.954;6.996;2023-04-25T18:15:17;7.30;;;1.00;;
39344;SDS011;25061;51.954;6.996;2023-04-25T18:17:45;5.90;;;1.05;;
39344;SDS011;25061;51.954;6.996;2023-04-25T18:20:13;5.60;;;1.27;;
39344;SDS011;25061;51.954;6.996;2023-04-25T18:22:40;6.45;;;1.25;;
39344;SDS011;25061;51.954;6.996;2023-04-25T18:25:09;7.65;;;1.17;;
39344;SDS011;25061;51.954;6.996;2023-04-25T18:27:37;7.90;;;1.38;;
39344;SDS011;25061;51.954;6.996;2023-04-25T18:30:05;6.95;;;2.20;;
39344;SDS011;25061;51.954;6.996;2023-04-25T18:32:33;8.43;;;1.30;;
39344;SDS011;25061;51.954;6.996;2023-04-25T18:34:58;5.82;;;1.20;;
39344;SDS011;25061;51.954;6.996;2023-04-25T18:37:24;4.97;;;0.90;;
39344;SDS011;25061;51.954;6.996;2023-04-25T18:39:50;5.10;;;1.10;;
39344;SDS011;25061;51.954;6.996;2023-04-25T18:42:18;4.78;;;1.17;;
39344;SDS011;25061;51.954;6.996;2023-04-25T18:44:44;6.53;;;1.45;;
39344;SDS011;25061;51.954;6.996;2023-04-25T18:47:10;8.43;;;2.13;;
39344;SDS011;25061;51.954;6.996;2023-04-25T18:49:37;5.38;;;1.20;;
39344;SDS011;25061;51.954;6.996;2023-04-25T18:52:06;11.15;;;1.50;;
39344;SDS011;25061;51.954;6.996;2023-04-25T18:54:37;5.85;;;1.23;;
39344;SDS011;25061;51.954;6.996;2023-04-25T18:57:03;8.75;;;1.20;;
39344;SDS011;25061;51.954;6.996;2023-04-25T18:59:30;6.63;;;0.90;;
39344;SDS011;25061;51.954;6.996;2023-04-25T19:01:56;5.57;;;1.00;;
39344;SDS011;25061;51.954;6.996;2023-04-25T19:04:24;7.95;;;1.38;;
39344;SDS011;25061;51.954;6.996;2023-04-25T19:06:50;12.82;;;3.25;;
39344;SDS011;25061;51.954;6.996;2023-04-25T19:09:17;7.43;;;2.38;;
39344;SDS011;25061;51.954;6.996;2023-04-25T19:11:43;7.80;;;1.55;;
39344;SDS011;25061;51.954;6.996;2023-04-25T19:14:09;4.88;;;1.00;;
39344;SDS011;25061;51.954;6.996;2023-04-25T19:16:35;6.75;;;1.23;;
39344;SDS011;25061;51.954;6.996;2023-04-25T19:19:04;11.05;;;2.13;;
39344;SDS011;25061;51.954;6.996;2023-04-25T19:21:32;8.30;;;1.30;;
39344;SDS011;25061;51.954;6.996;2023-04-25T19:24:00;7.25;;;1.83;;
39344;SDS011;25061;51.954;6.996;2023-04-25T19:26:27;6.13;;;1.17;;
39344;SDS011;25061;51.954;6.996;2023-04-25T19:29:07;9.73;;;1.73;;
39344;SDS011;25061;51.954;6.996;2023-04-25T19:31:34;6.22;;;1.08;;